Orange8 — JL6278 — position and weather

sailwx.info

Track history (hours):
 
Tides and Currents Weather Stations Pressure Air Temp Water Temp Dewpoint Dewpoint Depression Visibility Wind Speed Wind Dir Waves Ship Positions

Orange8

Last reported at 2015-Mar-26 14:34 UTC. Time now 2015-Mar-27 19:08 UTC.
Position N 34°37' E 134°57'.

Length 164 m; draft 5 m.

Type: Passenger vessel. MMSI: 431501603.

Date/timePositionNaut miles runAvg speedWind from/ knotsBaromVisibWave heightAir tempDewpointWater temp
2015-Mar-26 14:34N 34°37' E 134°57'1817.9
2015-Mar-26 13:34N 34°36' E 135°19'6 5.4
2015-Mar-26 12:29N 34°37' E 135°26'0 0.0
2015-Mar-26 11:29N 34°37' E 135°26'0 0.0
2015-Mar-26 10:29N 34°37' E 135°26'0 0.0
2015-Mar-26 09:29N 34°37' E 135°26'0 0.0
2015-Mar-26 08:17N 34°37' E 135°26'0 0.0
2015-Mar-26 07:29N 34°37' E 135°26'0 0.0
2015-Mar-26 06:29N 34°37' E 135°26'0 0.0
2015-Mar-26 05:29N 34°37' E 135°26'0 0.0
2015-Mar-26 04:23N 34°37' E 135°26'0 0.0
2015-Mar-26 03:23N 34°37' E 135°26'0 0.0
2015-Mar-26 02:29N 34°37' E 135°26'0 0.0
2015-Mar-26 01:11N 34°37' E 135°26'0 0.0
2015-Mar-26 00:29N 34°37' E 135°26'0 0.0
2015-Mar-25 23:29N 34°37' E 135°26'0 0.0
2015-Mar-25 22:23N 34°37' E 135°26'0 0.0
2015-Mar-25 21:29N 34°37' E 135°26'6 6.0
2015-Mar-25 20:33N 34°36' E 135°19'1918.7
2015-Mar-25 19:33N 34°36' E 134°57'2 0.1
2015-Mar-24 14:34N 34°38' E 134°58'1918.8
2015-Mar-24 13:33N 34°37' E 135°21'4 3.9
2015-Mar-24 12:34N 34°37' E 135°26'0 0.0
2015-Mar-24 11:34N 34°37' E 135°26'0 0.0
2015-Mar-24 10:16N 34°37' E 135°26'0 0.0
2015-Mar-24 09:34N 34°37' E 135°26'0 0.0
2015-Mar-24 08:34N 34°37' E 135°26'0 0.0
2015-Mar-24 07:34N 34°37' E 135°26'0 0.0
2015-Mar-24 06:28N 34°37' E 135°26'0 0.0
2015-Mar-24 05:10N 34°37' E 135°26'0 0.0
2015-Mar-24 03:16N 34°37' E 135°26'0 0.0
2015-Mar-24 02:04N 34°37' E 135°26'0 0.0
2015-Mar-24 00:22N 34°37' E 135°26'0 0.0
2015-Mar-23 23:22N 34°37' E 135°26'0 0.0
2015-Mar-23 21:10N 34°37' E 135°26'610.3
2015-Mar-23 20:33N 34°35' E 135°19'1818.4
2015-Mar-23 19:33N 34°36' E 134°56'1 0.0
2015-Mar-22 14:33N 34°37' E 134°56'2020.4
2015-Mar-22 13:33N 34°37' E 135°21'4 3.4
2015-Mar-22 12:24N 34°37' E 135°26'0 0.0
2015-Mar-22 11:06N 34°37' E 135°26'0 0.0
2015-Mar-22 05:18N 34°37' E 135°26'0 0.0
2015-Mar-22 04:30N 34°37' E 135°26'0 0.0
2015-Mar-22 00:18N 34°37' E 135°26'0 0.0
2015-Mar-21 22:12N 34°37' E 135°26'0 0.0
2015-Mar-21 21:30N 34°37' E 135°26'5 5.2
2015-Mar-21 20:33N 34°36' E 135°20'1818.0
2015-Mar-21 19:32N 34°37' E 134°58'2 0.1
2015-Mar-20 14:33N 34°36' E 134°55'1918.6
2015-Mar-20 13:33N 34°36' E 135°18'7 2.9
2015-Mar-20 11:11N 34°37' E 135°26'0 0.0
2015-Mar-20 10:29N 34°37' E 135°26'0 0.0
2015-Mar-20 09:29N 34°37' E 135°26'0 0.0
2015-Mar-20 08:29N 34°37' E 135°26'0 0.0
2015-Mar-20 07:23N 34°37' E 135°26'0 0.0
2015-Mar-20 06:11N 34°37' E 135°26'0 0.0
2015-Mar-20 05:29N 34°37' E 135°26'0 0.0
2015-Mar-20 04:29N 34°37' E 135°26'0 0.0
2015-Mar-20 03:23N 34°37' E 135°26'0 0.0
2015-Mar-20 02:23N 34°37' E 135°26'0 0.0
2015-Mar-20 01:23N 34°37' E 135°26'0 0.0
2015-Mar-20 00:23N 34°37' E 135°26'0 0.0
2015-Mar-19 23:29N 34°37' E 135°26'0 0.0
2015-Mar-19 22:29N 34°37' E 135°26'0 0.0
2015-Mar-19 21:29N 34°37' E 135°26'6 7.1
2015-Mar-19 20:34N 34°36' E 135°18'1717.2
2015-Mar-19 19:33N 34°36' E 134°57'2 0.1
2015-Mar-18 14:33N 34°37' E 134°59'1818.2
2015-Mar-18 13:33N 34°37' E 135°21'4 3.7
2015-Mar-18 12:25N 34°37' E 135°26'0 0.0
2015-Mar-18 11:31N 34°37' E 135°26'0 0.0
2015-Mar-18 10:13N 34°37' E 135°26'0 0.0
2015-Mar-18 09:19N 34°37' E 135°26'0 0.0
2015-Mar-18 08:31N 34°37' E 135°26'0 0.0
2015-Mar-18 07:26N 34°37' E 135°26'1112.5
2015-Mar-18 06:34N 34°34' E 135°13'2118.4
2015-Mar-18 05:25N 34°33' E 134°48'  
Track history (hours):
 
Tides and Currents Weather Stations Pressure Air Temp Water Temp Dewpoint Dewpoint Depression Visibility Wind Speed Wind Dir Waves Ship Positions

Orange8

Last reported at 2015-Mar-26 14:34 UTC. Time now 2015-Mar-27 19:08 UTC.
Position N 34°37' E 134°57'.

Length 164 m; draft 5 m.

Type: Passenger vessel. MMSI: 431501603.

Date/timePositionNaut miles runAvg speedWind from/ knotsBaromVisibWave heightAir tempDewpointWater temp
2015-Mar-26 14:34N 34°37' E 134°57'1817.9
2015-Mar-26 13:34N 34°36' E 135°19'6 5.4
2015-Mar-26 12:29N 34°37' E 135°26'0 0.0
2015-Mar-26 11:29N 34°37' E 135°26'0 0.0
2015-Mar-26 10:29N 34°37' E 135°26'0 0.0
2015-Mar-26 09:29N 34°37' E 135°26'0 0.0
2015-Mar-26 08:17N 34°37' E 135°26'0 0.0
2015-Mar-26 07:29N 34°37' E 135°26'0 0.0
2015-Mar-26 06:29N 34°37' E 135°26'0 0.0
2015-Mar-26 05:29N 34°37' E 135°26'0 0.0
2015-Mar-26 04:23N 34°37' E 135°26'0 0.0
2015-Mar-26 03:23N 34°37' E 135°26'0 0.0
2015-Mar-26 02:29N 34°37' E 135°26'0 0.0
2015-Mar-26 01:11N 34°37' E 135°26'0 0.0
2015-Mar-26 00:29N 34°37' E 135°26'0 0.0
2015-Mar-25 23:29N 34°37' E 135°26'0 0.0
2015-Mar-25 22:23N 34°37' E 135°26'0 0.0
2015-Mar-25 21:29N 34°37' E 135°26'6 6.0
2015-Mar-25 20:33N 34°36' E 135°19'1918.7
2015-Mar-25 19:33N 34°36' E 134°57'2 0.1
2015-Mar-24 14:34N 34°38' E 134°58'1918.8
2015-Mar-24 13:33N 34°37' E 135°21'4 3.9
2015-Mar-24 12:34N 34°37' E 135°26'0 0.0
2015-Mar-24 11:34N 34°37' E 135°26'0 0.0
2015-Mar-24 10:16N 34°37' E 135°26'0 0.0
2015-Mar-24 09:34N 34°37' E 135°26'0 0.0
2015-Mar-24 08:34N 34°37' E 135°26'0 0.0
2015-Mar-24 07:34N 34°37' E 135°26'0 0.0
2015-Mar-24 06:28N 34°37' E 135°26'0 0.0
2015-Mar-24 05:10N 34°37' E 135°26'0 0.0
2015-Mar-24 03:16N 34°37' E 135°26'0 0.0
2015-Mar-24 02:04N 34°37' E 135°26'0 0.0
2015-Mar-24 00:22N 34°37' E 135°26'0 0.0
2015-Mar-23 23:22N 34°37' E 135°26'0 0.0
2015-Mar-23 21:10N 34°37' E 135°26'610.3
2015-Mar-23 20:33N 34°35' E 135°19'1818.4
2015-Mar-23 19:33N 34°36' E 134°56'1 0.0
2015-Mar-22 14:33N 34°37' E 134°56'2020.4
2015-Mar-22 13:33N 34°37' E 135°21'4 3.4
2015-Mar-22 12:24N 34°37' E 135°26'0 0.0
2015-Mar-22 11:06N 34°37' E 135°26'0 0.0
2015-Mar-22 05:18N 34°37' E 135°26'0 0.0
2015-Mar-22 04:30N 34°37' E 135°26'0 0.0
2015-Mar-22 00:18N 34°37' E 135°26'0 0.0
2015-Mar-21 22:12N 34°37' E 135°26'0 0.0
2015-Mar-21 21:30N 34°37' E 135°26'5 5.2
2015-Mar-21 20:33N 34°36' E 135°20'1818.0
2015-Mar-21 19:32N 34°37' E 134°58'2 0.1
2015-Mar-20 14:33N 34°36' E 134°55'1918.6
2015-Mar-20 13:33N 34°36' E 135°18'7 2.9
2015-Mar-20 11:11N 34°37' E 135°26'0 0.0
2015-Mar-20 10:29N 34°37' E 135°26'0 0.0
2015-Mar-20 09:29N 34°37' E 135°26'0 0.0
2015-Mar-20 08:29N 34°37' E 135°26'0 0.0
2015-Mar-20 07:23N 34°37' E 135°26'0 0.0
2015-Mar-20 06:11N 34°37' E 135°26'0 0.0
2015-Mar-20 05:29N 34°37' E 135°26'0 0.0
2015-Mar-20 04:29N 34°37' E 135°26'0 0.0
2015-Mar-20 03:23N 34°37' E 135°26'0 0.0
2015-Mar-20 02:23N 34°37' E 135°26'0 0.0
2015-Mar-20 01:23N 34°37' E 135°26'0 0.0
2015-Mar-20 00:23N 34°37' E 135°26'0 0.0
2015-Mar-19 23:29N 34°37' E 135°26'0 0.0
2015-Mar-19 22:29N 34°37' E 135°26'0 0.0
2015-Mar-19 21:29N 34°37' E 135°26'6 7.1
2015-Mar-19 20:34N 34°36' E 135°18'1717.2
2015-Mar-19 19:33N 34°36' E 134°57'2 0.1
2015-Mar-18 14:33N 34°37' E 134°59'1818.2
2015-Mar-18 13:33N 34°37' E 135°21'4 3.7
2015-Mar-18 12:25N 34°37' E 135°26'0 0.0
2015-Mar-18 11:31N 34°37' E 135°26'0 0.0
2015-Mar-18 10:13N 34°37' E 135°26'0 0.0
2015-Mar-18 09:19N 34°37' E 135°26'0 0.0
2015-Mar-18 08:31N 34°37' E 135°26'0 0.0
2015-Mar-18 07:26N 34°37' E 135°26'1112.5
2015-Mar-18 06:34N 34°34' E 135°13'2118.4
2015-Mar-18 05:25N 34°33' E 134°48'  

Dump ship's entire track history